createdAt,value
2019-02-15T00:00:34.387Z,37.40
2019-02-15T00:03:05.454Z,37.30
2019-02-15T00:05:34.829Z,37.30
2019-02-15T00:08:04.262Z,37.30
2019-02-15T00:10:33.717Z,37.30
2019-02-15T00:13:03.217Z,37.30
2019-02-15T00:15:32.670Z,37.40
2019-02-15T00:18:15.789Z,37.40
2019-02-15T00:20:58.806Z,37.30
2019-02-15T00:23:28.167Z,37.30
2019-02-15T00:25:57.698Z,37.30
2019-02-15T00:28:27.128Z,37.30
2019-02-15T00:30:56.590Z,37.30
2019-02-15T00:33:26.029Z,37.30
2019-02-15T00:35:55.479Z,37.30
2019-02-15T00:38:24.830Z,37.30
2019-02-15T00:40:54.292Z,37.30
2019-02-15T00:43:23.722Z,37.20
2019-02-15T00:46:11.349Z,37.20
2019-02-15T00:48:40.838Z,37.20
2019-02-15T00:51:20.958Z,37.30
2019-02-15T00:54:04.278Z,37.30
2019-02-15T00:56:47.426Z,37.30
2019-02-15T00:59:34.841Z,37.20
2019-02-15T01:02:08.758Z,38.00
2019-02-15T01:04:39.767Z,37.30
2019-02-15T01:07:10.865Z,37.30
2019-02-15T01:09:47.871Z,37.30
2019-02-15T01:12:18.963Z,37.30
2019-02-15T01:14:48.404Z,37.30
2019-02-15T01:17:17.863Z,37.30
2019-02-15T01:19:47.295Z,37.30
2019-02-15T01:22:16.756Z,37.30
2019-02-15T01:24:46.187Z,37.30
2019-02-15T01:27:19.958Z,37.30
2019-02-15T01:30:06.077Z,37.30
2019-02-15T01:32:37.161Z,37.30
2019-02-15T01:35:08.155Z,37.20
2019-02-15T01:37:39.260Z,37.20
2019-02-15T01:40:13.049Z,37.30
2019-02-15T01:42:53.266Z,37.30
2019-02-15T01:45:24.262Z,37.30
2019-02-15T01:47:53.709Z,37.30
2019-02-15T01:50:23.058Z,37.30
2019-02-15T01:52:52.602Z,37.30
2019-02-15T01:55:22.034Z,37.30
2019-02-15T01:57:52.563Z,37.30
2019-02-15T02:00:23.643Z,37.30
2019-02-15T02:02:53.102Z,37.30
2019-02-15T02:05:22.527Z,37.30
2019-02-15T02:07:51.986Z,37.30
2019-02-15T02:10:21.446Z,37.40
2019-02-15T02:12:51.878Z,37.40
2019-02-15T02:15:21.231Z,37.30
2019-02-15T02:17:50.794Z,37.30
2019-02-15T02:20:20.304Z,37.30
2019-02-15T02:22:49.756Z,37.40
2019-02-15T02:25:19.193Z,37.40
2019-02-15T02:27:48.646Z,37.30
2019-02-15T02:30:18.094Z,37.30
2019-02-15T02:32:47.546Z,37.30
2019-02-15T02:35:16.981Z,37.30
2019-02-15T02:37:46.502Z,37.40
2019-02-15T02:40:15.895Z,37.40
2019-02-15T02:42:45.346Z,37.40
2019-02-15T02:45:14.773Z,37.40
2019-02-15T02:47:44.227Z,37.40
2019-02-15T02:50:13.579Z,37.40
2019-02-15T02:52:43.038Z,37.40
2019-02-15T02:55:13.439Z,37.30
2019-02-15T02:57:42.916Z,37.40
2019-02-15T03:00:12.347Z,37.40
2019-02-15T03:02:41.803Z,37.30
2019-02-15T03:05:11.285Z,37.40
2019-02-15T03:07:40.834Z,37.40
2019-02-15T03:10:10.199Z,37.40
2019-02-15T03:12:39.661Z,37.40
2019-02-15T03:15:09.120Z,37.40
2019-02-15T03:17:38.560Z,37.40
2019-02-15T03:20:08.022Z,37.40
2019-02-15T03:22:37.443Z,37.30
2019-02-15T03:25:06.907Z,37.40
2019-02-15T03:27:36.338Z,37.30
2019-02-15T03:30:08.441Z,37.30
2019-02-15T03:32:37.978Z,37.30
2019-02-15T03:35:09.286Z,37.30
2019-02-15T03:37:46.352Z,37.90
2019-02-15T03:40:20.423Z,37.40
2019-02-15T03:42:49.854Z,37.30
2019-02-15T03:45:19.304Z,37.30
2019-02-15T03:47:48.745Z,37.40
2019-02-15T03:50:19.315Z,37.30
2019-02-15T03:52:48.740Z,37.30
2019-02-15T03:55:18.199Z,37.30
2019-02-15T03:57:47.553Z,37.30
2019-02-15T04:00:17.008Z,37.30
2019-02-15T04:02:46.501Z,37.30
2019-02-15T04:05:15.950Z,37.30
2019-02-15T04:07:45.385Z,37.40
2019-02-15T04:10:14.842Z,37.30
2019-02-15T04:12:44.298Z,37.30
2019-02-15T04:15:13.886Z,37.30
2019-02-15T04:17:43.302Z,37.30
2019-02-15T04:20:12.758Z,37.30
2019-02-15T04:22:42.232Z,37.30
2019-02-15T04:25:11.690Z,37.30
2019-02-15T04:27:41.128Z,36.80
2019-02-15T04:30:11.267Z,37.30
2019-02-15T04:32:40.691Z,37.30
2019-02-15T04:35:10.147Z,37.30
2019-02-15T04:37:39.584Z,37.30
2019-02-15T04:40:09.711Z,37.30
2019-02-15T04:42:39.206Z,37.30
2019-02-15T04:45:09.131Z,37.30
2019-02-15T04:47:38.571Z,37.90
2019-02-15T04:50:09.067Z,37.30
2019-02-15T04:52:38.509Z,37.20
2019-02-15T04:55:07.954Z,37.30
2019-02-15T04:57:37.406Z,37.20
2019-02-15T05:00:08.406Z,37.30
2019-02-15T05:02:37.756Z,37.20
2019-02-15T05:05:08.282Z,37.20
2019-02-15T05:07:37.719Z,37.90
2019-02-15T05:10:07.173Z,37.20
2019-02-15T05:12:36.608Z,37.20
2019-02-15T05:15:07.811Z,37.20
2019-02-15T05:17:37.339Z,37.20
2019-02-15T05:20:07.766Z,37.20
2019-02-15T05:22:37.195Z,37.20
2019-02-15T05:25:06.759Z,37.20
2019-02-15T05:27:36.239Z,37.20
2019-02-15T05:30:07.447Z,37.20
2019-02-15T05:32:36.882Z,37.80
2019-02-15T05:35:06.418Z,37.20
2019-02-15T05:37:35.844Z,37.20
2019-02-15T05:40:06.048Z,37.20
2019-02-15T05:42:35.488Z,37.20
2019-02-15T05:45:05.756Z,37.20
2019-02-15T05:47:35.211Z,37.20
2019-02-15T05:50:05.891Z,37.20
2019-02-15T05:52:35.343Z,37.20
2019-02-15T05:55:05.921Z,37.60
2019-02-15T05:57:35.390Z,37.20
2019-02-15T06:00:08.174Z,37.20
2019-02-15T06:02:37.632Z,37.20
2019-02-15T06:05:08.823Z,37.20
2019-02-15T06:07:38.295Z,37.20
2019-02-15T06:10:08.553Z,37.20
2019-02-15T06:12:38.014Z,37.20
2019-02-15T06:15:14.857Z,37.20
2019-02-15T06:17:38.540Z,37.10
2019-02-15T06:20:08.349Z,37.10
2019-02-15T06:22:37.799Z,37.20
2019-02-15T06:25:07.238Z,37.30
2019-02-15T06:27:36.691Z,37.50
2019-02-15T06:30:08.163Z,37.60
2019-02-15T06:32:37.619Z,37.60
2019-02-15T06:35:07.051Z,37.60
2019-02-15T06:37:36.435Z,37.60
2019-02-15T06:40:06.503Z,37.50
2019-02-15T06:42:35.879Z,37.40
2019-02-15T06:45:06.755Z,37.30
2019-02-15T06:47:37.189Z,37.30
2019-02-15T06:50:07.802Z,37.40
2019-02-15T06:52:37.265Z,37.40
2019-02-15T06:55:07.256Z,37.30
2019-02-15T06:57:36.712Z,37.40
2019-02-15T07:00:13.423Z,37.30
2019-02-15T07:02:59.289Z,37.30
2019-02-15T07:05:28.723Z,37.20
2019-02-15T07:07:58.175Z,37.80
2019-02-15T07:10:27.620Z,37.20
2019-02-15T07:12:57.082Z,37.30
2019-02-15T07:15:33.483Z,37.30
2019-02-15T07:17:57.548Z,37.40
2019-02-15T07:20:26.985Z,37.90
2019-02-15T07:22:56.438Z,37.50
2019-02-15T07:25:25.799Z,37.50
2019-02-15T07:27:55.247Z,37.40
2019-02-15T07:30:24.679Z,37.40
2019-02-15T07:32:54.138Z,37.50
2019-02-15T07:35:23.490Z,37.40
2019-02-15T07:37:52.870Z,37.50
2019-02-15T07:40:22.323Z,37.50
2019-02-15T07:42:51.775Z,37.60
2019-02-15T07:45:22.649Z,37.60
2019-02-15T07:47:52.179Z,37.50
2019-02-15T07:50:21.615Z,37.50
2019-02-15T07:52:52.151Z,37.10
2019-02-15T07:55:21.579Z,36.90
2019-02-15T07:57:51.042Z,37.00
2019-02-15T08:00:20.405Z,37.20
2019-02-15T08:02:49.850Z,37.40
2019-02-15T08:05:19.288Z,37.40
2019-02-15T08:07:48.742Z,37.40
2019-02-15T08:10:18.093Z,37.40
2019-02-15T08:12:47.547Z,38.10
2019-02-15T08:15:16.999Z,37.50
2019-02-15T08:17:46.522Z,37.50
2019-02-15T08:20:15.951Z,37.30
2019-02-15T08:22:45.406Z,37.10
2019-02-15T08:25:14.797Z,37.20
2019-02-15T08:27:44.275Z,37.30
2019-02-15T08:30:13.716Z,37.30
2019-02-15T08:32:43.172Z,37.50
2019-02-15T08:35:12.611Z,37.60
2019-02-15T08:37:42.062Z,37.60
2019-02-15T08:40:11.584Z,37.50
2019-02-15T08:42:41.051Z,37.10
2019-02-15T08:45:13.388Z,36.80
2019-02-15T08:47:42.876Z,36.50
2019-02-15T08:50:13.254Z,36.30
2019-02-15T08:52:42.718Z,36.20
2019-02-15T08:55:12.527Z,35.80
2019-02-15T08:57:41.994Z,35.60
2019-02-15T09:00:14.320Z,35.30
2019-02-15T09:02:44.215Z,34.70
2019-02-15T09:05:13.562Z,34.70
2019-02-15T09:07:43.028Z,33.40
2019-02-15T09:10:13.342Z,32.50
2019-02-15T09:12:42.812Z,31.80
2019-02-15T09:15:18.018Z,31.40
2019-02-15T09:17:47.457Z,31.00
2019-02-15T09:20:16.930Z,30.80
2019-02-15T09:22:46.363Z,30.80
2019-02-15T09:25:15.823Z,30.80
2019-02-15T09:27:46.964Z,30.90
2019-02-15T09:30:16.382Z,30.90
2019-02-15T09:32:45.814Z,31.00
2019-02-15T09:35:15.288Z,31.10
2019-02-15T09:37:44.717Z,31.10
2019-02-15T09:40:14.110Z,31.10
2019-02-15T09:42:43.599Z,31.20
2019-02-15T09:45:13.130Z,31.20
2019-02-15T09:47:42.562Z,31.20
2019-02-15T09:50:12.371Z,31.30
2019-02-15T09:52:41.950Z,30.70
2019-02-15T09:55:11.322Z,31.40
2019-02-15T09:57:40.762Z,31.40
2019-02-15T10:00:10.890Z,31.50
2019-02-15T10:02:40.387Z,31.50
2019-02-15T10:05:10.944Z,31.60
2019-02-15T10:07:40.437Z,31.50
2019-02-15T10:10:10.373Z,31.60
2019-02-15T10:12:39.842Z,31.60
2019-02-15T10:15:10.685Z,31.70
2019-02-15T10:17:40.091Z,31.60
2019-02-15T10:20:09.562Z,31.10
2019-02-15T10:22:38.998Z,30.60
2019-02-15T10:25:09.394Z,31.30
2019-02-15T10:27:38.747Z,31.70
2019-02-15T10:30:12.891Z,31.80
2019-02-15T10:32:42.325Z,32.30
2019-02-15T10:35:11.783Z,32.30
2019-02-15T10:37:41.214Z,32.40
2019-02-15T10:40:11.511Z,32.50
2019-02-15T10:42:40.942Z,32.60
2019-02-15T10:45:15.446Z,32.80
2019-02-15T10:47:44.874Z,32.90
2019-02-15T10:50:14.603Z,32.90
2019-02-15T10:52:44.037Z,33.10
2019-02-15T10:55:13.507Z,33.10
2019-02-15T10:57:42.954Z,33.20
2019-02-15T11:00:18.655Z,33.10
2019-02-15T11:02:48.114Z,33.80
2019-02-15T11:05:18.473Z,33.20
2019-02-15T11:07:48.081Z,33.30
2019-02-15T11:10:17.502Z,33.30
2019-02-15T11:12:46.934Z,33.50
2019-02-15T11:15:17.143Z,33.60
2019-02-15T11:17:46.574Z,33.40
2019-02-15T11:20:18.498Z,33.40
2019-02-15T11:22:48.084Z,33.40
2019-02-15T11:25:17.486Z,33.30
2019-02-15T11:27:46.920Z,33.60
2019-02-15T11:30:16.965Z,33.70
2019-02-15T11:32:46.474Z,33.70
2019-02-15T11:35:15.937Z,33.90
2019-02-15T11:37:45.387Z,34.00
2019-02-15T11:40:15.478Z,34.20
2019-02-15T11:42:44.936Z,34.40
2019-02-15T11:45:15.111Z,34.40
2019-02-15T11:47:44.563Z,34.40
2019-02-15T11:50:14.964Z,34.50
2019-02-15T11:52:44.419Z,34.50
2019-02-15T11:55:13.847Z,34.50
2019-02-15T11:57:43.299Z,34.50
2019-02-15T12:00:17.835Z,34.60
2019-02-15T12:02:47.023Z,34.60
2019-02-15T12:05:16.541Z,34.80
2019-02-15T12:07:46.165Z,34.70
2019-02-15T12:10:16.731Z,34.90
2019-02-15T12:12:46.122Z,34.80
2019-02-15T12:15:15.775Z,34.80
2019-02-15T12:17:45.568Z,35.00
2019-02-15T12:20:15.377Z,35.00
2019-02-15T12:22:45.096Z,35.20
2019-02-15T12:25:14.502Z,35.30
2019-02-15T12:27:43.955Z,35.30
2019-02-15T12:30:14.454Z,35.30
2019-02-15T12:32:43.942Z,35.40
2019-02-15T12:35:13.295Z,35.40
2019-02-15T12:37:42.762Z,35.40
2019-02-15T12:40:12.274Z,35.50
2019-02-15T12:42:41.730Z,35.50
2019-02-15T12:45:16.198Z,35.50
2019-02-15T12:47:45.643Z,35.70
2019-02-15T12:50:20.078Z,35.70
2019-02-15T12:52:49.538Z,35.70
2019-02-15T12:55:19.428Z,35.90
2019-02-15T12:57:48.879Z,36.20
2019-02-15T13:00:18.314Z,36.70
2019-02-15T13:02:47.758Z,36.80
2019-02-15T13:05:18.263Z,37.20
2019-02-15T13:07:47.719Z,37.50
2019-02-15T13:10:18.804Z,37.60
2019-02-15T13:12:48.255Z,37.70
2019-02-15T13:15:17.687Z,38.10
2019-02-15T13:17:47.239Z,38.20
2019-02-15T13:20:16.608Z,38.50
2019-02-15T13:22:46.063Z,38.50
2019-02-15T13:25:15.562Z,38.60
2019-02-15T13:27:45.018Z,38.70
2019-02-15T13:30:16.185Z,38.70
2019-02-15T13:32:45.661Z,38.60
2019-02-15T13:35:20.964Z,38.50
2019-02-15T13:37:50.590Z,38.50
2019-02-15T13:40:19.942Z,38.50
2019-02-15T13:42:49.650Z,38.70
2019-02-15T13:45:19.155Z,38.80
2019-02-15T13:47:48.671Z,38.60
2019-02-15T13:50:19.187Z,35.10
2019-02-15T13:52:48.922Z,35.30
2019-02-15T13:55:18.386Z,35.10
2019-02-15T13:57:48.225Z,35.20
2019-02-15T14:00:17.769Z,36.00
2019-02-15T14:02:47.226Z,35.50
2019-02-15T14:05:16.835Z,35.60
2019-02-15T14:07:46.291Z,35.80
2019-02-15T14:10:15.798Z,35.60
2019-02-15T14:12:45.171Z,35.40
2019-02-15T14:15:14.602Z,35.40
2019-02-15T14:17:47.527Z,35.40
2019-02-15T14:20:15.062Z,35.30
2019-02-15T14:22:44.439Z,35.30
2019-02-15T14:25:13.878Z,35.30
2019-02-15T14:27:43.259Z,35.20
2019-02-15T14:30:13.728Z,35.30
2019-02-15T14:32:43.181Z,35.10
2019-02-15T14:35:13.756Z,35.10
2019-02-15T14:37:43.220Z,35.10
2019-02-15T14:40:13.770Z,35.70
2019-02-15T14:42:43.217Z,35.00
2019-02-15T14:45:13.826Z,35.00
2019-02-15T14:47:43.232Z,35.00
2019-02-15T14:50:12.687Z,35.00
2019-02-15T14:52:42.115Z,35.00
2019-02-15T14:55:11.750Z,34.90
2019-02-15T14:57:41.192Z,35.00
2019-02-15T15:00:13.532Z,35.00
2019-02-15T15:02:42.887Z,34.90
2019-02-15T15:05:15.042Z,34.90
2019-02-15T15:07:44.409Z,34.90
2019-02-15T15:10:13.874Z,34.90
2019-02-15T15:12:43.311Z,34.90
2019-02-15T15:15:15.268Z,34.90
2019-02-15T15:17:44.627Z,34.90
2019-02-15T15:20:14.156Z,35.50
2019-02-15T15:22:43.620Z,34.90
2019-02-15T15:25:16.167Z,34.90
2019-02-15T15:27:45.593Z,34.90
2019-02-15T15:30:16.112Z,35.00
2019-02-15T15:32:45.544Z,35.00
2019-02-15T15:35:15.005Z,35.00
2019-02-15T15:37:45.426Z,35.00
2019-02-15T15:40:16.516Z,35.00
2019-02-15T15:42:46.019Z,35.00
2019-02-15T15:45:15.471Z,35.00
2019-02-15T15:47:44.899Z,35.00
2019-02-15T15:50:14.350Z,35.60
2019-02-15T15:52:43.707Z,35.20
2019-02-15T15:55:13.941Z,35.50
2019-02-15T15:57:43.375Z,35.60
2019-02-15T16:00:14.811Z,28.80
2019-02-15T16:02:44.614Z,29.30
2019-02-15T16:05:14.063Z,31.70
2019-02-15T16:07:43.979Z,33.40
2019-02-15T16:10:14.470Z,34.60
2019-02-15T16:12:43.922Z,35.10
2019-02-15T16:15:14.013Z,37.20
2019-02-15T16:17:43.447Z,35.60
2019-02-15T16:20:13.739Z,36.60
2019-02-15T16:22:43.177Z,38.60
2019-02-15T16:25:12.622Z,38.20
2019-02-15T16:27:43.496Z,36.60
2019-02-15T16:30:14.386Z,36.10
2019-02-15T16:32:43.821Z,35.80
2019-02-15T16:35:13.269Z,35.80
2019-02-15T16:37:42.630Z,35.80
2019-02-15T16:40:15.706Z,36.50
2019-02-15T16:42:45.202Z,36.30
2019-02-15T16:45:15.315Z,36.10
2019-02-15T16:47:44.749Z,36.60
2019-02-15T16:50:14.933Z,31.90
2019-02-15T16:52:44.362Z,32.90
2019-02-15T16:55:13.826Z,34.80
2019-02-15T16:57:43.254Z,34.80
2019-02-15T17:00:13.780Z,34.90
2019-02-15T17:02:43.169Z,34.70
2019-02-15T17:05:12.691Z,34.70
2019-02-15T17:07:42.132Z,33.80
2019-02-15T17:10:11.755Z,35.20
2019-02-15T17:12:41.182Z,35.60
2019-02-15T17:15:12.780Z,37.80
2019-02-15T17:17:42.234Z,37.60
2019-02-15T17:20:11.692Z,36.60
2019-02-15T17:22:41.150Z,36.50
2019-02-15T17:25:11.756Z,36.90
2019-02-15T17:27:41.279Z,36.40
2019-02-15T17:30:11.476Z,36.40
2019-02-15T17:32:40.987Z,37.00
2019-02-15T17:35:11.308Z,37.30
2019-02-15T17:37:40.765Z,37.80
2019-02-15T17:40:15.728Z,38.10
2019-02-15T17:42:45.194Z,39.60
2019-02-15T17:45:14.546Z,39.30
2019-02-15T17:47:44.010Z,39.40
2019-02-15T17:50:13.457Z,40.10
2019-02-15T17:52:42.898Z,40.60
2019-02-15T17:55:13.318Z,41.00
2019-02-15T17:57:42.698Z,40.40
2019-02-15T18:00:14.235Z,40.50
2019-02-15T18:02:43.852Z,40.70
2019-02-15T18:05:19.119Z,40.70
2019-02-15T18:07:49.917Z,40.70
2019-02-15T18:10:20.339Z,41.00
2019-02-15T18:12:49.798Z,40.80
2019-02-15T18:15:20.298Z,40.90
2019-02-15T18:17:49.678Z,40.90
2019-02-15T18:20:19.106Z,41.00
2019-02-15T18:22:48.482Z,41.00
2019-02-15T18:25:17.915Z,41.20
2019-02-15T18:27:47.363Z,41.00
2019-02-15T18:30:17.074Z,41.50
2019-02-15T18:32:46.522Z,41.30
2019-02-15T18:35:15.878Z,41.70
2019-02-15T18:37:45.291Z,41.60
2019-02-15T18:40:14.751Z,41.80
2019-02-15T18:42:45.182Z,42.00
2019-02-15T18:45:15.954Z,41.00
2019-02-15T18:47:45.415Z,40.70
2019-02-15T18:50:14.861Z,40.60
2019-02-15T18:52:44.318Z,41.10
2019-02-15T18:55:13.755Z,41.00
2019-02-15T18:57:43.216Z,41.00
2019-02-15T19:00:16.727Z,41.00
2019-02-15T19:02:48.628Z,41.00
2019-02-15T19:05:18.071Z,41.10
2019-02-15T19:07:47.529Z,41.20
2019-02-15T19:10:19.855Z,41.20
2019-02-15T19:12:49.324Z,41.00
2019-02-15T19:15:18.760Z,40.80
2019-02-15T19:17:48.238Z,41.40
2019-02-15T19:20:17.987Z,41.40
2019-02-15T19:22:47.442Z,41.30
2019-02-15T19:25:18.918Z,41.20
2019-02-15T19:27:48.373Z,40.90
2019-02-15T19:30:27.192Z,40.30
2019-02-15T19:32:56.650Z,40.30
2019-02-15T19:35:26.095Z,40.50
2019-02-15T19:37:55.542Z,40.30
2019-02-15T19:40:24.905Z,40.30
2019-02-15T19:42:57.627Z,40.20
2019-02-15T19:45:27.072Z,40.80
2019-02-15T19:47:58.335Z,39.80
2019-02-15T19:50:27.604Z,39.40
2019-02-15T19:52:57.038Z,39.20
2019-02-15T19:55:26.494Z,39.10
2019-02-15T19:57:55.934Z,39.30
2019-02-15T20:00:25.319Z,39.20
2019-02-15T20:02:54.751Z,39.30
2019-02-15T20:05:24.202Z,39.20
2019-02-15T20:07:53.630Z,39.30
2019-02-15T20:10:23.815Z,39.20
2019-02-15T20:12:53.176Z,39.30
2019-02-15T20:15:22.635Z,39.20
2019-02-15T20:17:52.071Z,39.20
2019-02-15T20:20:21.532Z,39.10
2019-02-15T20:22:50.978Z,39.00
2019-02-15T20:25:20.414Z,39.00
2019-02-15T20:27:49.810Z,39.00
2019-02-15T20:30:23.695Z,39.60
2019-02-15T20:32:53.129Z,39.00
2019-02-15T20:35:22.598Z,39.10
2019-02-15T20:37:51.963Z,39.10
2019-02-15T20:40:21.414Z,38.70
2019-02-15T20:42:50.826Z,39.00
2019-02-15T20:45:23.559Z,39.10
2019-02-15T20:47:53.126Z,39.10
2019-02-15T20:50:23.779Z,39.10
2019-02-15T20:52:53.210Z,39.10
2019-02-15T20:55:22.586Z,39.00
2019-02-15T20:57:52.023Z,39.10
2019-02-15T21:00:29.735Z,39.10
2019-02-15T21:02:59.169Z,39.10
2019-02-15T21:05:28.657Z,39.20
2019-02-15T21:08:00.046Z,39.80
2019-02-15T21:10:29.748Z,39.30
2019-02-15T21:12:59.355Z,39.30
2019-02-15T21:15:30.174Z,39.30
2019-02-15T21:17:59.870Z,39.40
2019-02-15T21:20:29.422Z,40.20
2019-02-15T21:22:58.994Z,39.80
2019-02-15T21:25:28.447Z,40.20
2019-02-15T21:27:58.177Z,39.90
2019-02-15T21:30:27.626Z,40.00
2019-02-15T21:32:57.207Z,40.00
2019-02-15T21:35:26.733Z,39.90
2019-02-15T21:37:56.352Z,40.00
2019-02-15T21:40:25.907Z,40.00
2019-02-15T21:42:55.442Z,39.90
2019-02-15T21:45:25.070Z,39.80
2019-02-15T21:47:54.584Z,39.90
2019-02-15T21:50:24.199Z,39.90
2019-02-15T21:52:53.877Z,40.00
2019-02-15T21:55:23.480Z,39.90
2019-02-15T21:58:01.065Z,39.90
2019-02-15T22:00:26.117Z,40.00
2019-02-15T22:02:55.615Z,39.90
2019-02-15T22:05:25.093Z,39.90
2019-02-15T22:07:54.550Z,39.90
2019-02-15T22:10:24.212Z,39.80
2019-02-15T22:12:53.830Z,39.80
2019-02-15T22:15:23.336Z,39.80
2019-02-15T22:17:52.840Z,39.80
2019-02-15T22:20:26.719Z,39.80
2019-02-15T22:22:53.482Z,39.90
2019-02-15T22:25:23.122Z,39.80
2019-02-15T22:27:52.614Z,39.90
2019-02-15T22:30:22.118Z,39.90
2019-02-15T22:32:51.740Z,39.80
2019-02-15T22:35:21.329Z,39.70
2019-02-15T22:37:51.086Z,39.70
2019-02-15T22:40:27.683Z,39.70
2019-02-15T22:42:59.721Z,39.70
2019-02-15T22:45:29.126Z,39.80
2019-02-15T22:47:58.797Z,39.70
2019-02-15T22:50:35.745Z,39.70
2019-02-15T22:52:59.682Z,39.80
2019-02-15T22:55:29.554Z,39.60
2019-02-15T22:57:59.145Z,39.70
2019-02-15T23:00:48.754Z,39.70
2019-02-15T23:03:20.172Z,39.60
2019-02-15T23:05:49.682Z,39.60
2019-02-15T23:08:19.133Z,39.60
2019-02-15T23:10:48.739Z,39.60
2019-02-15T23:13:18.206Z,39.60
2019-02-15T23:15:48.625Z,39.60
2019-02-15T23:18:18.986Z,39.60
2019-02-15T23:20:48.624Z,39.90
2019-02-15T23:23:18.075Z,39.60
2019-02-15T23:25:47.574Z,39.60
2019-02-15T23:28:17.056Z,39.60
2019-02-15T23:30:46.401Z,39.60
2019-02-15T23:33:15.777Z,39.60
2019-02-15T23:35:45.206Z,39.40
2019-02-15T23:38:14.666Z,39.40
2019-02-15T23:40:44.098Z,39.40
2019-02-15T23:43:13.563Z,39.40
2019-02-15T23:45:44.920Z,39.50
2019-02-15T23:48:14.025Z,39.40
2019-02-15T23:50:43.500Z,39.70
2019-02-15T23:53:12.990Z,39.30
2019-02-15T23:55:42.338Z,39.30
2019-02-15T23:58:11.790Z,39.30
